Assenede, Belgium
Current Conditions -  °F | °C
As of 4:55 PM on Friday 24 Oct 2014 (Local Time) from EHFS Reporting Station
Overcast Overcast  
Wind Chill: 55°   Ceiling: 500
Heat Index: 55°   Visibility: 3mi
Dew Point: 54°   Wind: 18mph
Humidity: 94%   Direction: 180°S
Pressure: 29.97"   Gusts: NA
Location:  51.23°N, 3.75°E
Report Text: EHFS 241455Z AUTO 18016KT 5000 SCT004/// BKN005/// OVC006///13/12 Q1015
Loading
Personal Weather Stations






























Interactive Weather Map
Tropical Storm Tracking
New forecast layout! Learn more

10-Day Weather Forecast

Advertisements
Track Severe Weather on mobile